Bayfield, CO

3:18 AM MST on December 27, 2014 (GMT -0700)
Pagosa Springs | Change Station
CLOSE
Current Station
Airport
Location: Pagosa Springs,
Elevation: 7657 ft
Nearby Weather Stations

Elev 7657 ft 37.29 °N, 107.06 °W | Updated 3 minutes ago

Overcast
Overcast
13 °F
Feels Like 13 °F
N
0
Wind Variable Wind from North

Today
High -- | Low -- °F
--% Chance of Precip.
Yesterday
High -- | Low -- °F
Precip. -- in
7:23 AM 4:59 PM
Waxing Crescent, 35% visible
Pressure 30.03 in
Visibility 2.5 miles
Clouds Overcast 2500 ft
Dew Point 11 °F
Humidity 94%
Rainfall 0.00 in
Snow Depth Not available.
UV 0 out of 12
Pollen .40 out of 12
Air Quality Not available.
Flu Activity Not available.
METAR KPSO 271015Z AUTO 00000KT 2 1/2SM -SN OVC025 M11/M12 A3003 RMK AO2 VIS 1 1/2V5 T11081116

More Conditions Fewer Conditions

Pressure 30.03 in
Visibility 2.5 miles
Clouds Overcast 2500 ft
Dew Point 11 °F
Humidity 94%
Rainfall 0.00 in
Snow Depth Not available.
UV 0 out of 12
Pollen .40 out of 12
Air Quality Not available.
Flu Activity Not available.
METAR KPSO 271015Z AUTO 00000KT 2 1/2SM -SN OVC025 M11/M12 A3003 RMK AO2 VIS 1 1/2V5 T11081116

More Conditions Fewer Conditions

10-Day Weather Forecast

Almanac

Astronomy

Dec. 27, 2014 Rise Set
Actual Time
Civil Twilight
Nautical Twilight
Astronomical Twilight
Moon
Length of Visible Light
Length of Day
Tomorrow will be .
, % of the Moon is Illuminated

Today's Extremes

State Highs State Lows

Community

WunderPhotos

Upload Photos

1,780,869 photos uploaded!

WunderBlogs® & News

Nearby

Air Quality

  Air Quality AQ Index Pollutant
Not available.

Snow Depth

Station Depth Elevation

Earthquake Activity

City Distance Mag. Time & Date
Minimum magnitude displayed is 2.5.

Coastal Water Temperatures

Place Temperature

Nearby Weather Stations